createdAt,value
2019-06-26T00:00:25.233Z,6.73
2019-06-26T00:02:56.272Z,7.90
2019-06-26T00:05:28.216Z,7.13
2019-06-26T00:07:59.057Z,7.40
2019-06-26T00:10:39.509Z,7.93
2019-06-26T00:13:25.121Z,7.00
2019-06-26T00:15:49.858Z,7.00
2019-06-26T00:18:25.744Z,8.07
2019-06-26T00:20:57.975Z,7.63
2019-06-26T00:23:31.816Z,7.60
2019-06-26T00:26:02.938Z,7.33
2019-06-26T00:28:35.239Z,7.43
2019-06-26T00:31:09.578Z,7.47
2019-06-26T00:33:44.328Z,7.87
2019-06-26T01:03:15.789Z,12.17
2019-06-26T01:05:47.433Z,11.03
2019-06-26T01:08:34.489Z,9.00
2019-06-26T01:11:04.948Z,8.80
2019-06-26T01:13:37.148Z,7.77
2019-06-26T01:16:09.477Z,8.93
2019-06-26T01:18:41.043Z,8.40
2019-06-26T01:21:12.193Z,8.50
2019-06-26T01:23:43.790Z,8.37
2019-06-26T01:26:14.419Z,8.70
2019-06-26T01:28:45.647Z,7.60
2019-06-26T01:31:16.612Z,8.33
2019-06-26T01:33:47.645Z,8.20
2019-06-26T01:36:20.287Z,7.63
2019-06-26T01:38:51.483Z,7.53
2019-06-26T01:41:24.819Z,7.60
2019-06-26T01:43:56.177Z,8.40
2019-06-26T01:46:27.977Z,7.80
2019-06-26T01:48:58.652Z,8.73
2019-06-26T01:51:31.416Z,8.57
2019-06-26T01:54:02.246Z,8.50
2019-06-26T01:56:33.598Z,8.73
2019-06-26T01:59:05.149Z,7.60
2019-06-26T02:01:35.764Z,8.73
2019-06-26T02:04:10.148Z,8.17
2019-06-26T02:06:41.016Z,7.53
2019-06-26T02:09:43.884Z,8.37
2019-06-26T02:12:15.737Z,8.23
2019-06-26T02:14:47.597Z,8.10
2019-06-26T02:17:18.780Z,8.40
2019-06-26T02:19:50.459Z,8.70
2019-06-26T02:22:21.153Z,8.90
2019-06-26T02:24:52.321Z,8.57
2019-06-26T02:27:23.227Z,8.37
2019-06-26T02:29:54.181Z,7.70
2019-06-26T02:32:30.740Z,9.00
2019-06-26T02:35:02.435Z,8.43
2019-06-26T02:37:45.885Z,8.43
2019-06-26T02:40:17.371Z,8.17
2019-06-26T02:42:48.630Z,8.23
2019-06-26T02:45:19.728Z,8.47
2019-06-26T02:47:50.824Z,8.73
2019-06-26T02:50:21.493Z,9.00
2019-06-26T02:52:52.096Z,9.03
2019-06-26T02:55:23.077Z,9.33
2019-06-26T02:57:54.693Z,8.83
2019-06-26T03:00:25.808Z,8.73
2019-06-26T03:02:57.923Z,8.80
2019-06-26T03:05:29.230Z,9.43
2019-06-26T03:07:59.839Z,9.37
2019-06-26T03:10:30.479Z,8.53
2019-06-26T03:13:01.637Z,8.57
2019-06-26T03:15:32.666Z,9.33
2019-06-26T03:18:03.694Z,9.60
2019-06-26T03:20:39.488Z,8.83
2019-06-26T03:23:10.357Z,8.87
2019-06-26T03:25:40.844Z,8.77
2019-06-26T03:28:13.212Z,8.77
2019-06-26T03:30:44.780Z,9.50
2019-06-26T03:33:16.081Z,9.47
2019-06-26T03:35:47.386Z,9.70
2019-06-26T03:38:18.698Z,9.63
2019-06-26T03:40:49.944Z,9.47
2019-06-26T03:43:21.189Z,9.23
2019-06-26T03:45:51.857Z,9.07
2019-06-26T03:48:23.069Z,9.97
2019-06-26T03:50:53.809Z,9.33
2019-06-26T03:53:28.181Z,9.10
2019-06-26T03:55:58.934Z,9.40
2019-06-26T03:58:30.108Z,8.97
2019-06-26T04:01:00.481Z,9.17
2019-06-26T04:03:31.568Z,9.40
2019-06-26T04:06:03.038Z,19.10
2019-06-26T04:08:35.049Z,33.43
2019-06-26T04:11:05.844Z,14.27
2019-06-26T04:13:37.414Z,10.70
2019-06-26T04:16:08.002Z,10.47
2019-06-26T04:18:39.471Z,10.33
2019-06-26T04:21:11.120Z,9.17
2019-06-26T04:23:42.166Z,9.27
2019-06-26T04:26:12.793Z,9.60
2019-06-26T04:28:43.724Z,8.73
2019-06-26T04:31:15.612Z,16.83
2019-06-26T04:33:46.530Z,11.43
2019-06-26T04:36:17.556Z,10.23
2019-06-26T04:38:48.156Z,9.40
2019-06-26T04:41:22.401Z,10.33
2019-06-26T04:43:54.465Z,9.20
2019-06-26T04:46:25.709Z,9.17
2019-06-26T04:48:57.330Z,9.03
2019-06-26T04:51:28.653Z,8.23
2019-06-26T04:54:00.227Z,9.10
2019-06-26T04:56:42.914Z,8.70
2019-06-26T04:59:14.023Z,9.03
2019-06-26T05:01:45.061Z,8.10
2019-06-26T05:04:16.607Z,9.07
2019-06-26T05:06:48.119Z,8.60
2019-06-26T05:09:19.524Z,8.57
2019-06-26T05:11:51.283Z,8.57
2019-06-26T05:14:22.572Z,9.00
2019-06-26T05:16:53.789Z,8.20
2019-06-26T05:19:25.115Z,9.77
2019-06-26T05:21:56.269Z,9.13
2019-06-26T05:24:26.884Z,8.73
2019-06-26T05:26:58.104Z,8.50
2019-06-26T05:29:29.048Z,8.37
2019-06-26T05:32:00.749Z,7.93
2019-06-26T05:34:31.708Z,8.27
2019-06-26T05:37:03.436Z,7.60
2019-06-26T05:39:35.290Z,8.13
2019-06-26T05:42:06.895Z,8.77
2019-06-26T05:44:38.726Z,8.57
2019-06-26T05:47:10.201Z,7.80
2019-06-26T05:49:41.782Z,8.20
2019-06-26T05:52:16.360Z,7.25
2019-06-26T05:54:45.333Z,7.03
2019-06-26T05:57:16.768Z,6.92
2019-06-26T05:59:47.785Z,7.75
2019-06-26T06:02:18.663Z,7.03
2019-06-26T06:04:49.208Z,6.95
2019-06-26T06:07:20.245Z,7.05
2019-06-26T06:09:51.648Z,6.50
2019-06-26T06:12:23.089Z,7.40
2019-06-26T06:14:54.079Z,6.75
2019-06-26T06:17:26.916Z,7.28
2019-06-26T06:19:58.105Z,6.15
2019-06-26T06:22:28.745Z,6.67
2019-06-26T06:25:08.195Z,6.12
2019-06-26T06:27:38.768Z,5.70
2019-06-26T06:30:09.929Z,6.17
2019-06-26T06:32:41.178Z,5.83
2019-06-26T06:35:11.468Z,7.00
2019-06-26T06:37:42.094Z,6.08
2019-06-26T06:40:13.098Z,6.60
2019-06-26T06:42:44.665Z,6.72
2019-06-26T06:45:16.088Z,6.50
2019-06-26T06:47:51.976Z,5.80
2019-06-26T06:50:22.558Z,6.37
2019-06-26T06:52:54.040Z,6.33
2019-06-26T06:55:25.871Z,6.20
2019-06-26T06:57:56.800Z,6.78
2019-06-26T07:00:27.754Z,6.17
2019-06-26T07:02:59.230Z,6.87
2019-06-26T07:05:30.197Z,5.58
2019-06-26T07:08:01.415Z,6.45
2019-06-26T07:10:53.646Z,6.10
2019-06-26T07:13:24.767Z,6.33
2019-06-26T07:15:55.615Z,5.65
2019-06-26T07:18:26.992Z,5.87
2019-06-26T07:20:57.985Z,5.50
2019-06-26T07:23:28.973Z,6.05
2019-06-26T07:26:00.118Z,5.78
2019-06-26T07:28:34.791Z,5.65
2019-06-26T07:31:06.082Z,5.92
2019-06-26T07:33:36.995Z,6.45
2019-06-26T07:36:08.329Z,5.92
2019-06-26T07:38:39.761Z,5.37
2019-06-26T07:41:10.723Z,6.45
2019-06-26T07:43:42.548Z,5.92
2019-06-26T07:46:14.078Z,5.87
2019-06-26T07:48:45.380Z,5.75
2019-06-26T07:51:16.351Z,5.78
2019-06-26T07:53:47.937Z,6.00
2019-06-26T07:56:19.111Z,5.03
2019-06-26T07:58:50.645Z,6.47
2019-06-26T08:01:21.613Z,5.90
2019-06-26T08:03:52.549Z,6.95
2019-06-26T08:06:23.485Z,6.17
2019-06-26T08:08:54.158Z,6.17
2019-06-26T08:11:25.677Z,5.37
2019-06-26T08:13:56.624Z,6.47
2019-06-26T08:16:27.851Z,5.72
2019-06-26T08:18:59.653Z,5.10
2019-06-26T08:21:30.546Z,5.87
2019-06-26T08:24:04.576Z,5.62
2019-06-26T08:26:35.615Z,6.15
2019-06-26T08:29:06.751Z,5.53
2019-06-26T08:31:38.059Z,6.20
2019-06-26T08:34:09.332Z,5.70
2019-06-26T08:36:40.802Z,5.87
2019-06-26T08:39:11.864Z,6.03
2019-06-26T08:41:42.909Z,6.10
2019-06-26T08:44:13.903Z,5.75
2019-06-26T08:46:44.491Z,6.37
2019-06-26T08:49:25.413Z,5.80
2019-06-26T08:51:49.068Z,5.97
2019-06-26T08:54:20.340Z,5.75
2019-06-26T08:56:51.573Z,5.87
2019-06-26T08:59:22.839Z,6.58
2019-06-26T09:01:54.439Z,5.70
2019-06-26T09:04:25.504Z,6.17
2019-06-26T09:06:57.193Z,5.60
2019-06-26T09:09:27.875Z,6.05
2019-06-26T09:11:59.169Z,5.50
2019-06-26T09:14:30.724Z,5.22
2019-06-26T09:17:01.387Z,5.60
2019-06-26T09:19:32.304Z,5.92
2019-06-26T09:22:03.685Z,6.47
2019-06-26T09:24:35.302Z,5.97
2019-06-26T09:27:06.391Z,5.83
2019-06-26T09:29:38.006Z,5.70
2019-06-26T09:32:08.734Z,5.17
2019-06-26T09:34:39.342Z,5.40
2019-06-26T09:37:50.319Z,5.22
2019-06-26T09:40:22.250Z,5.80
2019-06-26T09:42:53.240Z,5.95
2019-06-26T09:45:24.039Z,5.90
2019-06-26T09:47:55.254Z,5.40
2019-06-26T09:50:25.842Z,5.17
2019-06-26T09:52:56.455Z,5.45
2019-06-26T09:55:27.083Z,5.35
2019-06-26T09:57:58.462Z,4.95
2019-06-26T10:00:29.677Z,5.72
2019-06-26T10:03:00.722Z,5.33
2019-06-26T10:05:31.311Z,5.10
2019-06-26T10:08:02.598Z,4.95
2019-06-26T10:10:33.633Z,4.97
2019-06-26T10:13:04.596Z,5.15
2019-06-26T10:15:36.229Z,5.60
2019-06-26T10:18:07.501Z,5.20
2019-06-26T10:20:39.033Z,4.78
2019-06-26T10:23:10.341Z,4.92
2019-06-26T10:25:41.842Z,5.55
2019-06-26T10:28:12.570Z,5.15
2019-06-26T10:30:43.831Z,5.78
2019-06-26T10:33:14.865Z,5.22
2019-06-26T10:35:46.376Z,5.62
2019-06-26T10:38:17.656Z,4.90
2019-06-26T10:40:48.518Z,4.85
2019-06-26T10:43:19.537Z,5.30
2019-06-26T10:45:51.208Z,5.55
2019-06-26T10:48:22.124Z,5.03
2019-06-26T10:50:58.503Z,5.08
2019-06-26T10:53:41.587Z,5.00
2019-06-26T10:56:13.175Z,4.92
2019-06-26T10:58:44.520Z,4.50
2019-06-26T11:01:16.572Z,4.33
2019-06-26T11:03:47.178Z,4.58
2019-06-26T11:06:18.500Z,4.08
2019-06-26T11:08:49.894Z,3.75
2019-06-26T11:11:20.840Z,3.55
2019-06-26T11:13:52.232Z,3.75
2019-06-26T11:16:23.256Z,3.62
2019-06-26T11:18:53.929Z,4.20
2019-06-26T11:21:26.440Z,4.50
2019-06-26T11:23:57.140Z,4.08
2019-06-26T11:26:28.123Z,4.10
2019-06-26T11:29:10.430Z,4.20
2019-06-26T11:31:41.080Z,4.30
2019-06-26T11:34:11.689Z,4.03
2019-06-26T11:36:42.948Z,3.80
2019-06-26T11:39:13.570Z,3.77
2019-06-26T11:41:44.977Z,3.20
2019-06-26T11:44:16.227Z,3.50
2019-06-26T11:46:47.869Z,3.62
2019-06-26T11:49:19.472Z,3.50
2019-06-26T11:51:50.505Z,4.12
2019-06-26T11:54:21.455Z,3.98
2019-06-26T11:56:52.787Z,3.70
2019-06-26T11:59:23.840Z,4.00
2019-06-26T12:01:54.762Z,3.83
2019-06-26T12:04:25.880Z,3.55
2019-06-26T12:06:56.524Z,3.77
2019-06-26T12:09:27.483Z,3.95
2019-06-26T12:11:58.678Z,3.70
2019-06-26T12:14:48.723Z,3.70
2019-06-26T12:17:19.430Z,3.58
2019-06-26T12:19:50.585Z,3.55
2019-06-26T12:22:21.946Z,3.40
2019-06-26T12:24:53.588Z,3.35
2019-06-26T12:27:24.645Z,3.45
2019-06-26T12:29:55.772Z,3.45
2019-06-26T12:32:26.780Z,3.70
2019-06-26T12:34:58.001Z,3.90
2019-06-26T12:37:37.459Z,3.65
2019-06-26T12:40:02.699Z,3.92
2019-06-26T12:42:33.959Z,4.20
2019-06-26T12:45:04.799Z,3.65
2019-06-26T12:47:36.129Z,3.42
2019-06-26T12:50:08.598Z,3.98
2019-06-26T12:52:38.921Z,3.60
2019-06-26T12:55:10.159Z,4.20
2019-06-26T12:57:41.392Z,3.55
2019-06-26T13:00:12.154Z,3.50
2019-06-26T13:02:42.791Z,4.15
2019-06-26T13:05:14.314Z,3.90
2019-06-26T13:07:46.090Z,3.47
2019-06-26T13:10:18.074Z,4.17
2019-06-26T13:12:49.755Z,4.05
2019-06-26T13:15:20.484Z,4.37
2019-06-26T13:17:54.001Z,3.95
2019-06-26T13:20:24.850Z,4.25
2019-06-26T13:22:56.079Z,4.80
2019-06-26T13:25:27.370Z,4.70
2019-06-26T13:27:58.736Z,4.03
2019-06-26T13:30:37.799Z,4.40
2019-06-26T13:33:08.883Z,4.03
2019-06-26T13:35:39.954Z,4.22
2019-06-26T13:38:11.543Z,4.55
2019-06-26T13:40:42.534Z,4.10
2019-06-26T13:43:13.765Z,4.22
2019-06-26T13:45:45.011Z,4.35
2019-06-26T13:48:16.690Z,4.53
2019-06-26T13:50:47.366Z,4.70
2019-06-26T13:53:18.453Z,4.33
2019-06-26T13:55:49.308Z,3.85
2019-06-26T13:58:20.898Z,4.22
2019-06-26T14:00:51.219Z,4.05
2019-06-26T14:03:22.121Z,4.53
2019-06-26T14:05:53.858Z,3.98
2019-06-26T14:08:25.221Z,4.12
2019-06-26T14:10:56.368Z,3.90
2019-06-26T14:13:27.842Z,3.87
2019-06-26T14:15:59.252Z,3.92
2019-06-26T14:18:30.915Z,3.90
2019-06-26T14:21:01.246Z,3.98
2019-06-26T14:23:32.288Z,3.95
2019-06-26T14:26:03.238Z,3.45
2019-06-26T14:28:45.369Z,3.52
2019-06-26T14:31:17.049Z,3.77
2019-06-26T14:33:48.766Z,3.42
2019-06-26T14:36:23.015Z,3.47
2019-06-26T14:38:52.243Z,3.85
2019-06-26T14:41:23.499Z,3.30
2019-06-26T14:43:54.851Z,3.47
2019-06-26T14:46:25.555Z,3.30
2019-06-26T14:48:58.802Z,3.22
2019-06-26T14:51:42.316Z,3.47
2019-06-26T14:54:15.084Z,3.70
2019-06-26T14:56:50.170Z,3.90
2019-06-26T14:59:21.396Z,3.27
2019-06-26T15:01:55.746Z,3.72
2019-06-26T15:04:27.238Z,3.58
2019-06-26T15:06:57.974Z,3.37
2019-06-26T15:09:29.491Z,3.40
2019-06-26T15:12:00.665Z,4.00
2019-06-26T15:14:31.513Z,3.83
2019-06-26T15:17:02.715Z,3.70
2019-06-26T15:19:33.817Z,3.85
2019-06-26T15:22:04.946Z,3.83
2019-06-26T15:24:36.293Z,3.52
2019-06-26T15:27:07.010Z,3.83
2019-06-26T15:29:38.061Z,3.83
2019-06-26T15:32:09.212Z,3.72
2019-06-26T15:34:40.338Z,3.92
2019-06-26T15:37:11.002Z,3.77
2019-06-26T15:39:42.556Z,3.75
2019-06-26T15:42:13.766Z,3.47
2019-06-26T15:44:44.790Z,3.37
2019-06-26T15:47:16.871Z,3.60
2019-06-26T15:49:48.396Z,3.30
2019-06-26T15:52:19.775Z,3.55
2019-06-26T15:54:51.342Z,3.33
2019-06-26T15:57:22.299Z,3.40
2019-06-26T15:59:55.835Z,3.40
2019-06-26T16:02:27.309Z,3.47
2019-06-26T16:04:58.848Z,3.83
2019-06-26T16:07:31.152Z,4.05
2019-06-26T16:10:02.415Z,3.60
2019-06-26T16:12:33.823Z,3.95
2019-06-26T16:15:06.371Z,3.90
2019-06-26T16:17:46.874Z,3.65
2019-06-26T16:20:18.741Z,3.42
2019-06-26T16:22:50.088Z,3.80
2019-06-26T16:25:21.902Z,3.42
2019-06-26T16:28:04.608Z,3.30
2019-06-26T16:30:25.950Z,3.20
2019-06-26T16:32:57.438Z,3.42
2019-06-26T16:35:28.506Z,3.98
2019-06-26T16:37:59.899Z,3.55
2019-06-26T16:40:31.394Z,3.90
2019-06-26T16:43:02.475Z,4.33
2019-06-26T16:45:33.547Z,4.20
2019-06-26T16:48:05.624Z,4.20
2019-06-26T16:50:36.247Z,3.87
2019-06-26T16:53:07.611Z,3.60
2019-06-26T16:55:38.229Z,3.47
2019-06-26T16:58:09.984Z,4.00
2019-06-26T17:00:41.348Z,4.15
2019-06-26T17:03:13.705Z,4.50
2019-06-26T17:05:44.986Z,3.92
2019-06-26T17:08:15.915Z,3.80
2019-06-26T17:10:47.550Z,3.98
2019-06-26T17:13:18.760Z,4.20
2019-06-26T17:15:49.808Z,4.08
2019-06-26T17:18:21.115Z,4.60
2019-06-26T17:20:52.331Z,4.50
2019-06-26T17:23:23.387Z,4.12
2019-06-26T17:25:54.307Z,4.80
2019-06-26T17:28:25.293Z,4.25
2019-06-26T17:30:56.694Z,4.70
2019-06-26T17:33:28.369Z,4.40
2019-06-26T17:35:58.871Z,4.72
2019-06-26T17:38:41.458Z,4.70
2019-06-26T17:41:12.209Z,4.97
2019-06-26T17:43:43.566Z,4.40
2019-06-26T17:46:14.647Z,4.92
2019-06-26T17:48:45.670Z,4.78
2019-06-26T17:51:16.701Z,5.37
2019-06-26T17:53:48.262Z,5.30
2019-06-26T17:56:20.617Z,5.22
2019-06-26T17:58:51.373Z,5.33
2019-06-26T18:01:22.632Z,5.10
2019-06-26T18:03:54.602Z,5.85
2019-06-26T18:06:25.634Z,5.45
2019-06-26T18:08:56.674Z,6.22
2019-06-26T18:11:28.050Z,5.80
2019-06-26T18:13:59.277Z,5.78
2019-06-26T18:16:37.853Z,5.75
2019-06-26T18:19:08.821Z,6.42
2019-06-26T18:21:39.178Z,6.12
2019-06-26T18:24:10.846Z,6.20
2019-06-26T18:26:42.151Z,6.08
2019-06-26T18:29:13.402Z,5.87
2019-06-26T18:31:44.422Z,6.28
2019-06-26T18:34:16.445Z,6.50
2019-06-26T18:36:47.980Z,6.55
2019-06-26T18:39:19.366Z,6.83
2019-06-26T18:41:50.410Z,6.80
2019-06-26T18:44:22.095Z,6.50
2019-06-26T18:46:53.637Z,6.30
2019-06-26T18:49:26.136Z,6.30
2019-06-26T18:52:02.475Z,6.87
2019-06-26T18:54:37.529Z,7.03
2019-06-26T18:57:11.016Z,6.80
2019-06-26T18:59:46.629Z,7.63
2019-06-26T19:02:18.656Z,7.50
2019-06-26T19:04:49.875Z,7.97
2019-06-26T19:07:22.775Z,7.57
2019-06-26T19:09:54.303Z,6.83
2019-06-26T19:12:26.296Z,8.30
2019-06-26T19:15:00.208Z,7.93
2019-06-26T19:17:50.178Z,7.63
2019-06-26T19:20:22.009Z,7.40
2019-06-26T19:22:53.790Z,7.00
2019-06-26T19:25:24.457Z,8.03
2019-06-26T19:27:58.400Z,8.47
2019-06-26T19:30:30.672Z,7.03
2019-06-26T19:33:03.366Z,8.20
2019-06-26T19:35:39.090Z,7.93
2019-06-26T19:38:09.431Z,7.87
2019-06-26T19:40:40.138Z,8.33
2019-06-26T19:43:11.959Z,8.20
2019-06-26T19:45:46.989Z,8.20
2019-06-26T19:48:18.296Z,8.70
2019-06-26T19:50:49.566Z,8.73
2019-06-26T19:53:20.526Z,7.97
2019-06-26T19:55:52.611Z,9.00
2019-06-26T19:58:23.737Z,8.43
2019-06-26T20:00:54.324Z,7.80
2019-06-26T20:03:25.218Z,7.83
2019-06-26T20:05:56.643Z,8.10
2019-06-26T20:08:29.734Z,7.63
2019-06-26T20:11:00.755Z,7.80
2019-06-26T20:13:31.774Z,7.60
2019-06-26T20:16:05.969Z,8.57
2019-06-26T20:18:38.921Z,8.03
2019-06-26T20:21:10.297Z,7.77
2019-06-26T20:23:42.607Z,8.67
2019-06-26T20:26:28.862Z,7.97
2019-06-26T20:29:04.495Z,8.73
2019-06-26T20:32:17.905Z,7.90
2019-06-26T20:35:16.055Z,8.10
2019-06-26T20:37:51.028Z,8.20
2019-06-26T20:40:25.200Z,7.67
2019-06-26T20:43:02.624Z,7.70
2019-06-26T20:45:35.775Z,7.77
2019-06-26T20:48:08.302Z,8.13
2019-06-26T20:50:44.166Z,7.00
2019-06-26T20:53:17.191Z,6.90
2019-06-26T20:55:48.065Z,7.70
2019-06-26T20:58:20.559Z,7.57
2019-06-26T21:01:03.937Z,8.50
2019-06-26T21:03:36.421Z,7.10
2019-06-26T21:06:13.864Z,8.33
2019-06-26T21:08:48.113Z,7.83
2019-06-26T21:11:21.203Z,7.07
2019-06-26T21:13:56.134Z,7.03
2019-06-26T21:16:29.133Z,6.57
2019-06-26T21:19:06.356Z,7.43
2019-06-26T21:21:48.849Z,7.47
2019-06-26T21:24:22.429Z,6.90
2019-06-26T21:26:55.102Z,8.00
2019-06-26T21:29:27.825Z,6.90
2019-06-26T21:32:01.104Z,39.90
2019-06-26T21:34:34.826Z,16.50
2019-06-26T21:37:07.109Z,8.47
2019-06-26T21:39:38.234Z,7.33
2019-06-26T21:42:22.291Z,7.17
2019-06-26T21:44:53.263Z,7.13
2019-06-26T21:47:29.293Z,7.50
2019-06-26T21:50:00.484Z,7.90
2019-06-26T21:52:32.283Z,6.40
2019-06-26T21:55:08.334Z,7.47
2019-06-26T21:57:39.847Z,8.00
2019-06-26T22:00:11.118Z,7.83
2019-06-26T22:02:41.896Z,8.00
2019-06-26T22:05:20.931Z,8.40
2019-06-26T22:07:51.720Z,7.53
2019-06-26T22:10:22.037Z,7.63
2019-06-26T22:12:53.264Z,8.90
2019-06-26T22:15:23.912Z,7.80
2019-06-26T22:17:56.489Z,8.17
2019-06-26T22:20:47.016Z,8.60
2019-06-26T22:23:18.335Z,8.63
2019-06-26T22:25:58.545Z,8.50
2019-06-26T22:28:40.916Z,8.47
2019-06-26T22:31:15.984Z,7.87
2019-06-26T22:33:52.109Z,8.33
2019-06-26T22:36:33.728Z,8.00
2019-06-26T22:39:22.726Z,8.03
2019-06-26T22:42:00.441Z,7.93
2019-06-26T22:44:31.897Z,7.70
2019-06-26T22:47:12.282Z,8.10
2019-06-26T22:49:53.891Z,8.20
2019-06-26T22:52:25.584Z,8.57
2019-06-26T22:55:08.867Z,8.53
2019-06-26T22:57:45.352Z,8.03
2019-06-26T23:00:22.163Z,7.30
2019-06-26T23:02:59.449Z,7.80
2019-06-26T23:05:42.359Z,9.13
2019-06-26T23:08:21.826Z,8.07
2019-06-26T23:11:06.100Z,8.33
2019-06-26T23:13:45.121Z,8.97
2019-06-26T23:16:30.375Z,8.27
2019-06-26T23:19:08.683Z,9.83
2019-06-26T23:21:42.564Z,8.97
2019-06-26T23:24:19.622Z,8.33
2019-06-26T23:26:57.385Z,8.53
2019-06-26T23:29:30.323Z,7.77
2019-06-26T23:32:05.871Z,7.97
2019-06-26T23:34:37.060Z,9.13
2019-06-26T23:37:07.677Z,8.13
2019-06-26T23:39:38.509Z,8.53
2019-06-26T23:42:09.553Z,8.07
2019-06-26T23:44:40.912Z,8.00
2019-06-26T23:47:13.174Z,8.27
2019-06-26T23:49:44.205Z,7.77
2019-06-26T23:52:15.367Z,9.27
2019-06-26T23:54:46.669Z,8.43
2019-06-26T23:57:17.331Z,9.53
2019-06-26T23:59:59.416Z,8.80
